Thornhill, Virginia
Current Conditions -  °F | °C
As of 9:35 PM on Thursday 27 Nov 2014 (Local Time) from KOMH Reporting Station
Clear Clear  
Wind Chill: 29°   Ceiling: Unl
Heat Index: 36°   Visibility: 10mi
Dew Point: 27°   Wind: 8mph
Humidity: 70%   Direction: 240°WSW
Pressure: 30.19"   Gusts: NA
Location:  38.216°N, 78.057°W
Report Text: KOMH 280235Z AUTO 24007KT 10SM CLR 02/M03 A3019 RMK AO2
Loading
Personal Weather Stations






























Interactive Weather Map New forecast layout! Learn more

10-Day Weather Forecast

Advertisements
Track Severe Weather on mobile